CST,Max TemperatureF,Mean TemperatureF,Min TemperatureF,Max Dew PointF,MeanDew PointF,Min DewpointF,Max Humidity, Mean Humidity, Min Humidity, Max Sea Level PressureIn, Mean Sea Level PressureIn, Min Sea Level PressureIn, Max VisibilityMiles, Mean VisibilityMiles, Min VisibilityMiles, Max Wind SpeedMPH, Mean Wind SpeedMPH, Max Gust SpeedMPH,PrecipitationIn, CloudCover, Events, WindDirDegrees
2011-11-1,68,49,30,45,35,28,96,77,43,30.10,30.01,29.89,10,6,2,10,1,20,0.00,1,,147
2011-11-2,52,44,37,44,39,34,93,82,67,30.21,30.08,29.92,10,8,2,14,4,23,0.52,7,Rain,16
2011-11-3,55,40,26,37,30,24,92,70,34,30.31,30.22,30.11,10,8,2,12,3,22,0.00,1,,29
2011-11-4,55,38,21,35,26,19,93,81,45,30.40,30.31,30.23,10,6,0,6,1,,0.00,2,Fog,99
2011-11-5,57,42,28,42,36,26,93,71,53,30.22,30.09,29.93,10,8,2,8,2,16,0.00,0,,0
2011-11-6,64,54,45,47,41,33,74,63,49,30.07,29.90,29.83,10,10,7,20,6,28,0.00,2,,200
2011-11-7,61,44,26,34,27,22,93,70,22,30.25,30.19,30.11,10,6,0,6,2,,0.00,1,Fog,315
2011-11-8,45,43,41,40,39,37,93,86,76,30.21,30.10,30.01,10,8,2,9,5,,0.75,8,Rain,37
2011-11-9,41,37,33,38,32,25,93,84,57,29.98,29.89,29.82,10,6,1,15,9,30,0.83,6,Rain-Snow,332
2011-11-10,41,36,30,30,27,24,82,69,57,30.07,30.01,29.95,10,9,2,14,6,20,0.00,7,Snow,262
2011-11-11,46,36,26,29,25,23,93,74,44,30.05,29.84,29.70,10,9,2,10,2,,0.00,1,,196
2011-11-12,55,39,23,39,27,19,96,77,51,29.73,29.65,29.39,10,6,1,12,1,22,0.00,2,,182
2011-11-13,60,52,44,49,41,34,82,67,53,29.60,29.37,29.24,10,10,10,13,7,21,0.00,3,Rain,222
2011-11-14,60,45,30,40,33,27,100,76,41,29.72,29.60,29.51,10,6,1,12,2,22,0.00,1,Rain,203
2011-11-15,57,42,27,34,27,18,89,51,34,29.94,29.75,29.67,10,10,10,14,5,25,0.00,1,,241
2011-11-16,41,34,28,19,14,10,61,46,28,30.17,30.10,29.95,10,10,10,13,6,25,0.00,0,,261
2011-11-17,35,27,19,15,12,8,74,56,34,30.25,30.19,30.09,10,10,10,12,6,18,0.00,0,,252
2011-11-18,54,42,30,28,24,17,82,56,34,30.06,29.85,29.73,10,10,10,12,6,20,0.00,1,,203
2011-11-19,48,42,37,41,35,25,93,73,42,30.03,29.74,29.64,10,7,2,10,4,17,0.02,8,Rain,5
2011-11-20,37,32,28,31,27,23,85,73,65,30.36,30.29,30.08,10,10,10,12,5,,0.00,7,,358
2011-11-21,43,32,21,29,26,19,93,80,58,30.39,30.31,30.23,10,8,5,6,1,,0.00,3,,54
2011-11-22,44,35,26,34,29,25,93,81,63,30.25,30.10,29.98,10,6,1,7,3,,0.00,4,,44
2011-11-23,46,35,24,37,30,21,93,84,66,30.24,30.18,30.11,10,4,1,13,2,16,0.00,6,,225
2011-11-24,54,48,42,43,41,37,89,78,64,30.17,30.06,29.90,10,6,3,15,10,20,0.00,7,,202
2011-11-25,53,50,48,45,42,39,80,73,63,29.88,29.82,29.77,10,9,7,14,8,20,0.00,8,,203
2011-11-26,54,46,39,52,44,33,94,85,69,29.94,29.80,29.73,10,6,2,14,4,20,0.34,8,Rain,254
2011-11-27,39,36,33,32,26,22,76,68,62,30.22,30.10,29.95,10,10,10,13,9,22,0.00,8,,343
2011-11-28,37,32,24,25,23,22,93,72,57,30.22,30.16,30.08,10,9,2,6,2,,0.00,4,,230
2011-11-29,42,32,21,26,20,15,92,63,35,30.20,30.16,30.12,10,9,4,16,5,23,0.00,0,,10
2011-11-30,46,30,15,19,14,8,88,55,22,30.14,30.09,30.03,10,10,8,9,3,,0.00,0,,217